sensor_id;sensor_type;location;lat;lon;timestamp;P1;durP1;ratioP1;P2;durP2;ratioP2
12776;SDS011;6452;41.572;23.732;2023-06-14T00:00:16;2.28;;;2.17;;
12776;SDS011;6452;41.572;23.732;2023-06-14T00:02:43;2.38;;;2.28;;
12776;SDS011;6452;41.572;23.732;2023-06-14T00:05:10;2.38;;;2.28;;
12776;SDS011;6452;41.572;23.732;2023-06-14T00:07:40;2.22;;;2.13;;
12776;SDS011;6452;41.572;23.732;2023-06-14T00:10:10;3.03;;;2.55;;
12776;SDS011;6452;41.572;23.732;2023-06-14T00:12:37;2.45;;;2.35;;
12776;SDS011;6452;41.572;23.732;2023-06-14T00:15:04;2.10;;;2.00;;
12776;SDS011;6452;41.572;23.732;2023-06-14T00:17:32;2.47;;;2.38;;
12776;SDS011;6452;41.572;23.732;2023-06-14T00:19:59;2.70;;;2.50;;
12776;SDS011;6452;41.572;23.732;2023-06-14T00:22:26;2.22;;;2.13;;
12776;SDS011;6452;41.572;23.732;2023-06-14T00:24:56;2.50;;;2.30;;
12776;SDS011;6452;41.572;23.732;2023-06-14T00:27:22;2.28;;;2.17;;
12776;SDS011;6452;41.572;23.732;2023-06-14T00:29:48;2.50;;;2.30;;
12776;SDS011;6452;41.572;23.732;2023-06-14T00:32:15;2.22;;;2.13;;
12776;SDS011;6452;41.572;23.732;2023-06-14T00:34:41;2.50;;;2.30;;
12776;SDS011;6452;41.572;23.732;2023-06-14T00:37:07;2.45;;;2.35;;
12776;SDS011;6452;41.572;23.732;2023-06-14T00:39:34;2.25;;;2.15;;
12776;SDS011;6452;41.572;23.732;2023-06-14T00:42:04;2.30;;;2.15;;
12776;SDS011;6452;41.572;23.732;2023-06-14T00:44:33;2.10;;;2.05;;
12776;SDS011;6452;41.572;23.732;2023-06-14T00:46:59;2.83;;;2.30;;
12776;SDS011;6452;41.572;23.732;2023-06-14T00:49:26;2.72;;;2.47;;
12776;SDS011;6452;41.572;23.732;2023-06-14T00:51:52;2.75;;;2.33;;
12776;SDS011;6452;41.572;23.732;2023-06-14T00:54:19;3.10;;;2.90;;
12776;SDS011;6452;41.572;23.732;2023-06-14T00:56:45;2.58;;;2.38;;
12776;SDS011;6452;41.572;23.732;2023-06-14T00:59:12;3.15;;;2.42;;
12776;SDS011;6452;41.572;23.732;2023-06-14T01:01:40;2.20;;;2.10;;
12776;SDS011;6452;41.572;23.732;2023-06-14T01:04:07;2.65;;;2.53;;
12776;SDS011;6452;41.572;23.732;2023-06-14T01:11:36;2.40;;;2.30;;
12776;SDS011;6452;41.572;23.732;2023-06-14T01:14:10;2.65;;;2.55;;
12776;SDS011;6452;41.572;23.732;2023-06-14T01:16:39;3.83;;;2.50;;
12776;SDS011;6452;41.572;23.732;2023-06-14T01:19:07;2.55;;;2.35;;
12776;SDS011;6452;41.572;23.732;2023-06-14T01:21:39;2.05;;;2.00;;
12776;SDS011;6452;41.572;23.732;2023-06-14T01:24:08;2.70;;;2.60;;
12776;SDS011;6452;41.572;23.732;2023-06-14T01:26:35;2.25;;;2.15;;
12776;SDS011;6452;41.572;23.732;2023-06-14T01:29:03;2.70;;;2.50;;
12776;SDS011;6452;41.572;23.732;2023-06-14T01:31:29;2.58;;;2.38;;
12776;SDS011;6452;41.572;23.732;2023-06-14T01:34:07;2.83;;;2.63;;
12776;SDS011;6452;41.572;23.732;2023-06-14T01:36:34;2.15;;;2.10;;
12776;SDS011;6452;41.572;23.732;2023-06-14T01:39:04;2.10;;;2.00;;
12776;SDS011;6452;41.572;23.732;2023-06-14T01:41:35;2.45;;;2.35;;
12776;SDS011;6452;41.572;23.732;2023-06-14T01:44:02;2.47;;;2.38;;
12776;SDS011;6452;41.572;23.732;2023-06-14T01:46:30;2.28;;;2.17;;
12776;SDS011;6452;41.572;23.732;2023-06-14T01:48:57;2.70;;;2.60;;
12776;SDS011;6452;41.572;23.732;2023-06-14T01:51:24;2.90;;;2.58;;
12776;SDS011;6452;41.572;23.732;2023-06-14T01:53:51;3.45;;;2.65;;
12776;SDS011;6452;41.572;23.732;2023-06-14T01:56:18;2.50;;;2.40;;
12776;SDS011;6452;41.572;23.732;2023-06-14T01:58:45;2.35;;;2.25;;
12776;SDS011;6452;41.572;23.732;2023-06-14T02:01:12;2.90;;;2.80;;
12776;SDS011;6452;41.572;23.732;2023-06-14T02:03:44;3.03;;;2.50;;
12776;SDS011;6452;41.572;23.732;2023-06-14T02:06:12;2.50;;;2.40;;
12776;SDS011;6452;41.572;23.732;2023-06-14T02:08:38;2.40;;;2.30;;
12776;SDS011;6452;41.572;23.732;2023-06-14T02:11:05;2.45;;;2.35;;
12776;SDS011;6452;41.572;23.732;2023-06-14T02:13:32;2.40;;;2.20;;
12776;SDS011;6452;41.572;23.732;2023-06-14T02:16:00;2.70;;;2.50;;
12776;SDS011;6452;41.572;23.732;2023-06-14T02:18:26;2.55;;;2.42;;
12776;SDS011;6452;41.572;23.732;2023-06-14T02:20:53;2.47;;;2.38;;
12776;SDS011;6452;41.572;23.732;2023-06-14T02:23:20;2.50;;;2.40;;
12776;SDS011;6452;41.572;23.732;2023-06-14T02:25:46;3.55;;;2.45;;
12776;SDS011;6452;41.572;23.732;2023-06-14T02:28:13;2.47;;;2.38;;
12776;SDS011;6452;41.572;23.732;2023-06-14T02:30:39;2.47;;;2.22;;
12776;SDS011;6452;41.572;23.732;2023-06-14T02:33:06;2.35;;;2.25;;
12776;SDS011;6452;41.572;23.732;2023-06-14T02:35:32;2.97;;;2.67;;
12776;SDS011;6452;41.572;23.732;2023-06-14T02:37:59;2.42;;;2.33;;
12776;SDS011;6452;41.572;23.732;2023-06-14T02:40:26;2.58;;;2.47;;
12776;SDS011;6452;41.572;23.732;2023-06-14T02:42:52;2.28;;;2.17;;
12776;SDS011;6452;41.572;23.732;2023-06-14T02:45:19;2.60;;;2.50;;
12776;SDS011;6452;41.572;23.732;2023-06-14T02:47:46;2.20;;;2.10;;
12776;SDS011;6452;41.572;23.732;2023-06-14T02:50:13;2.42;;;2.33;;
12776;SDS011;6452;41.572;23.732;2023-06-14T02:52:41;2.40;;;2.30;;
12776;SDS011;6452;41.572;23.732;2023-06-14T02:55:10;2.67;;;2.40;;
12776;SDS011;6452;41.572;23.732;2023-06-14T02:57:36;2.80;;;2.55;;
12776;SDS011;6452;41.572;23.732;2023-06-14T03:00:03;2.92;;;2.72;;
12776;SDS011;6452;41.572;23.732;2023-06-14T03:02:35;4.60;;;3.20;;
12776;SDS011;6452;41.572;23.732;2023-06-14T03:05:01;3.50;;;3.25;;
12776;SDS011;6452;41.572;23.732;2023-06-14T03:07:28;3.15;;;2.95;;
12776;SDS011;6452;41.572;23.732;2023-06-14T03:09:55;3.40;;;3.20;;
12776;SDS011;6452;41.572;23.732;2023-06-14T03:12:21;3.13;;;2.92;;
12776;SDS011;6452;41.572;23.732;2023-06-14T03:14:49;2.72;;;2.58;;
12776;SDS011;6452;41.572;23.732;2023-06-14T03:17:16;2.90;;;2.70;;
12776;SDS011;6452;41.572;23.732;2023-06-14T03:19:43;2.67;;;2.47;;
12776;SDS011;6452;41.572;23.732;2023-06-14T03:22:09;3.20;;;3.00;;
12776;SDS011;6452;41.572;23.732;2023-06-14T03:24:37;2.85;;;2.63;;
12776;SDS011;6452;41.572;23.732;2023-06-14T03:27:03;3.22;;;3.00;;
12776;SDS011;6452;41.572;23.732;2023-06-14T03:29:29;3.55;;;3.15;;
12776;SDS011;6452;41.572;23.732;2023-06-14T03:31:56;3.17;;;2.92;;
12776;SDS011;6452;41.572;23.732;2023-06-14T03:34:22;4.45;;;3.22;;
12776;SDS011;6452;41.572;23.732;2023-06-14T03:36:48;3.40;;;3.20;;
12776;SDS011;6452;41.572;23.732;2023-06-14T03:39:15;3.25;;;3.03;;
12776;SDS011;6452;41.572;23.732;2023-06-14T03:41:40;3.70;;;3.40;;
12776;SDS011;6452;41.572;23.732;2023-06-14T03:44:07;2.90;;;2.78;;
12776;SDS011;6452;41.572;23.732;2023-06-14T03:46:33;2.58;;;2.47;;
12776;SDS011;6452;41.572;23.732;2023-06-14T03:48:59;3.10;;;2.90;;
12776;SDS011;6452;41.572;23.732;2023-06-14T03:51:25;2.72;;;2.63;;
12776;SDS011;6452;41.572;23.732;2023-06-14T03:53:56;3.03;;;2.75;;
12776;SDS011;6452;41.572;23.732;2023-06-14T03:56:22;3.50;;;3.20;;
12776;SDS011;6452;41.572;23.732;2023-06-14T03:58:48;3.35;;;2.95;;
12776;SDS011;6452;41.572;23.732;2023-06-14T04:01:15;2.75;;;2.65;;
12776;SDS011;6452;41.572;23.732;2023-06-14T04:03:41;3.00;;;2.80;;
12776;SDS011;6452;41.572;23.732;2023-06-14T04:06:07;2.40;;;2.30;;
12776;SDS011;6452;41.572;23.732;2023-06-14T04:08:33;2.90;;;2.70;;
12776;SDS011;6452;41.572;23.732;2023-06-14T04:11:00;2.47;;;2.33;;
12776;SDS011;6452;41.572;23.732;2023-06-14T04:13:26;2.97;;;2.78;;
12776;SDS011;6452;41.572;23.732;2023-06-14T04:15:52;2.67;;;2.50;;
12776;SDS011;6452;41.572;23.732;2023-06-14T04:18:19;2.70;;;2.50;;
12776;SDS011;6452;41.572;23.732;2023-06-14T04:20:46;2.67;;;2.55;;
12776;SDS011;6452;41.572;23.732;2023-06-14T04:23:12;3.05;;;2.42;;
12776;SDS011;6452;41.572;23.732;2023-06-14T04:25:39;2.13;;;2.03;;
12776;SDS011;6452;41.572;23.732;2023-06-14T04:28:05;2.42;;;2.33;;
12776;SDS011;6452;41.572;23.732;2023-06-14T04:30:34;2.53;;;2.42;;
12776;SDS011;6452;41.572;23.732;2023-06-14T04:33:01;2.95;;;2.85;;
12776;SDS011;6452;41.572;23.732;2023-06-14T04:35:31;2.55;;;2.40;;
12776;SDS011;6452;41.572;23.732;2023-06-14T04:37:58;3.15;;;2.88;;
12776;SDS011;6452;41.572;23.732;2023-06-14T04:40:24;3.22;;;3.05;;
12776;SDS011;6452;41.572;23.732;2023-06-14T04:42:50;3.50;;;3.20;;
12776;SDS011;6452;41.572;23.732;2023-06-14T04:45:16;5.70;;;4.10;;
12776;SDS011;6452;41.572;23.732;2023-06-14T04:47:42;4.30;;;3.88;;
12776;SDS011;6452;41.572;23.732;2023-06-14T04:50:09;3.53;;;3.22;;
12776;SDS011;6452;41.572;23.732;2023-06-14T04:52:40;4.28;;;3.88;;
12776;SDS011;6452;41.572;23.732;2023-06-14T04:55:06;4.35;;;3.95;;
12776;SDS011;6452;41.572;23.732;2023-06-14T04:57:32;4.65;;;3.55;;
12776;SDS011;6452;41.572;23.732;2023-06-14T04:59:58;4.10;;;3.60;;
12776;SDS011;6452;41.572;23.732;2023-06-14T05:02:26;3.63;;;3.30;;
12776;SDS011;6452;41.572;23.732;2023-06-14T05:04:53;4.65;;;3.70;;
12776;SDS011;6452;41.572;23.732;2023-06-14T05:07:19;5.25;;;3.50;;
12776;SDS011;6452;41.572;23.732;2023-06-14T05:09:45;3.30;;;3.10;;
12776;SDS011;6452;41.572;23.732;2023-06-14T05:12:11;3.13;;;2.92;;
12776;SDS011;6452;41.572;23.732;2023-06-14T05:14:37;3.60;;;3.35;;
12776;SDS011;6452;41.572;23.732;2023-06-14T05:17:04;3.53;;;3.25;;
12776;SDS011;6452;41.572;23.732;2023-06-14T05:19:31;3.97;;;3.78;;
12776;SDS011;6452;41.572;23.732;2023-06-14T05:21:57;3.03;;;2.83;;
12776;SDS011;6452;41.572;23.732;2023-06-14T05:24:23;3.72;;;3.30;;
12776;SDS011;6452;41.572;23.732;2023-06-14T05:26:49;3.17;;;2.97;;
12776;SDS011;6452;41.572;23.732;2023-06-14T05:29:15;3.55;;;3.20;;
12776;SDS011;6452;41.572;23.732;2023-06-14T05:31:41;4.00;;;3.70;;
12776;SDS011;6452;41.572;23.732;2023-06-14T05:34:07;3.95;;;3.60;;
12776;SDS011;6452;41.572;23.732;2023-06-14T05:36:33;4.10;;;3.75;;
12776;SDS011;6452;41.572;23.732;2023-06-14T05:38:59;4.90;;;4.30;;
12776;SDS011;6452;41.572;23.732;2023-06-14T05:41:26;4.03;;;3.67;;
12776;SDS011;6452;41.572;23.732;2023-06-14T05:43:53;3.90;;;3.60;;
12776;SDS011;6452;41.572;23.732;2023-06-14T05:46:20;3.83;;;3.60;;
12776;SDS011;6452;41.572;23.732;2023-06-14T05:48:50;4.25;;;3.95;;
12776;SDS011;6452;41.572;23.732;2023-06-14T05:51:15;3.80;;;3.53;;
12776;SDS011;6452;41.572;23.732;2023-06-14T05:53:44;3.85;;;3.65;;
12776;SDS011;6452;41.572;23.732;2023-06-14T05:56:11;3.40;;;3.20;;
12776;SDS011;6452;41.572;23.732;2023-06-14T05:58:37;3.58;;;3.38;;
12776;SDS011;6452;41.572;23.732;2023-06-14T06:01:03;4.07;;;3.78;;
12776;SDS011;6452;41.572;23.732;2023-06-14T06:03:29;4.07;;;3.65;;
12776;SDS011;6452;41.572;23.732;2023-06-14T06:05:55;3.50;;;3.30;;
12776;SDS011;6452;41.572;23.732;2023-06-14T06:08:22;3.50;;;3.20;;
12776;SDS011;6452;41.572;23.732;2023-06-14T06:10:48;3.67;;;3.38;;
12776;SDS011;6452;41.572;23.732;2023-06-14T06:13:14;3.80;;;3.60;;
12776;SDS011;6452;41.572;23.732;2023-06-14T06:15:41;3.95;;;3.72;;
12776;SDS011;6452;41.572;23.732;2023-06-14T06:18:06;4.13;;;3.72;;
12776;SDS011;6452;41.572;23.732;2023-06-14T06:20:33;5.22;;;3.90;;
12776;SDS011;6452;41.572;23.732;2023-06-14T06:22:58;3.22;;;3.03;;
12776;SDS011;6452;41.572;23.732;2023-06-14T06:25:24;3.75;;;3.47;;
12776;SDS011;6452;41.572;23.732;2023-06-14T06:27:51;3.72;;;3.53;;
12776;SDS011;6452;41.572;23.732;2023-06-14T06:30:18;4.05;;;3.75;;
12776;SDS011;6452;41.572;23.732;2023-06-14T06:32:45;4.13;;;3.60;;
12776;SDS011;6452;41.572;23.732;2023-06-14T06:35:11;3.67;;;3.47;;
12776;SDS011;6452;41.572;23.732;2023-06-14T06:37:38;4.45;;;4.00;;
12776;SDS011;6452;41.572;23.732;2023-06-14T06:40:04;3.80;;;3.50;;
12776;SDS011;6452;41.572;23.732;2023-06-14T06:42:31;3.22;;;3.03;;
12776;SDS011;6452;41.572;23.732;2023-06-14T06:44:58;3.55;;;3.35;;
12776;SDS011;6452;41.572;23.732;2023-06-14T06:47:23;3.90;;;3.60;;
12776;SDS011;6452;41.572;23.732;2023-06-14T06:49:50;3.08;;;2.90;;
12776;SDS011;6452;41.572;23.732;2023-06-14T06:52:16;3.55;;;3.20;;
12776;SDS011;6452;41.572;23.732;2023-06-14T06:54:42;3.42;;;3.22;;
12776;SDS011;6452;41.572;23.732;2023-06-14T06:57:08;3.17;;;2.97;;
12776;SDS011;6452;41.572;23.732;2023-06-14T06:59:36;3.42;;;3.20;;
12776;SDS011;6452;41.572;23.732;2023-06-14T07:02:02;3.40;;;3.20;;
12776;SDS011;6452;41.572;23.732;2023-06-14T07:04:28;2.95;;;2.85;;
12776;SDS011;6452;41.572;23.732;2023-06-14T07:06:54;3.03;;;2.83;;
12776;SDS011;6452;41.572;23.732;2023-06-14T07:09:20;3.08;;;2.88;;
12776;SDS011;6452;41.572;23.732;2023-06-14T07:11:50;3.05;;;2.70;;
12776;SDS011;6452;41.572;23.732;2023-06-14T07:14:16;2.90;;;2.30;;
12776;SDS011;6452;41.572;23.732;2023-06-14T07:16:42;2.58;;;2.38;;
12776;SDS011;6452;41.572;23.732;2023-06-14T07:19:08;2.90;;;2.78;;
12776;SDS011;6452;41.572;23.732;2023-06-14T07:21:35;2.60;;;2.40;;
12776;SDS011;6452;41.572;23.732;2023-06-14T07:24:07;2.33;;;2.22;;
12776;SDS011;6452;41.572;23.732;2023-06-14T07:26:50;2.70;;;2.60;;
12776;SDS011;6452;41.572;23.732;2023-06-14T07:29:16;2.83;;;2.67;;
12776;SDS011;6452;41.572;23.732;2023-06-14T07:31:43;2.72;;;2.55;;
12776;SDS011;6452;41.572;23.732;2023-06-14T07:34:09;2.20;;;2.10;;
12776;SDS011;6452;41.572;23.732;2023-06-14T07:36:35;2.58;;;2.47;;
12776;SDS011;6452;41.572;23.732;2023-06-14T07:39:02;2.30;;;2.20;;
12776;SDS011;6452;41.572;23.732;2023-06-14T07:41:29;2.15;;;2.05;;
12776;SDS011;6452;41.572;23.732;2023-06-14T07:43:55;2.65;;;2.17;;
12776;SDS011;6452;41.572;23.732;2023-06-14T07:46:25;2.20;;;2.10;;
12776;SDS011;6452;41.572;23.732;2023-06-14T07:48:51;2.53;;;2.42;;
12776;SDS011;6452;41.572;23.732;2023-06-14T07:51:17;2.80;;;2.60;;
12776;SDS011;6452;41.572;23.732;2023-06-14T07:53:43;2.28;;;2.17;;
12776;SDS011;6452;41.572;23.732;2023-06-14T07:56:09;2.50;;;2.40;;
12776;SDS011;6452;41.572;23.732;2023-06-14T07:58:35;2.22;;;2.13;;
12776;SDS011;6452;41.572;23.732;2023-06-14T08:01:01;2.40;;;2.30;;
12776;SDS011;6452;41.572;23.732;2023-06-14T08:03:31;2.28;;;2.17;;
12776;SDS011;6452;41.572;23.732;2023-06-14T08:05:58;2.00;;;1.90;;
12776;SDS011;6452;41.572;23.732;2023-06-14T08:08:24;2.60;;;2.40;;
12776;SDS011;6452;41.572;23.732;2023-06-14T08:10:50;2.10;;;2.00;;
12776;SDS011;6452;41.572;23.732;2023-06-14T08:13:16;2.15;;;2.05;;
12776;SDS011;6452;41.572;23.732;2023-06-14T08:15:42;2.60;;;2.40;;
12776;SDS011;6452;41.572;23.732;2023-06-14T08:18:08;3.45;;;2.13;;
12776;SDS011;6452;41.572;23.732;2023-06-14T08:20:34;2.15;;;2.05;;
12776;SDS011;6452;41.572;23.732;2023-06-14T08:23:02;3.80;;;2.45;;
12776;SDS011;6452;41.572;23.732;2023-06-14T08:25:27;2.28;;;2.17;;
12776;SDS011;6452;41.572;23.732;2023-06-14T08:27:53;1.90;;;1.90;;
12776;SDS011;6452;41.572;23.732;2023-06-14T08:30:20;2.05;;;2.00;;
12776;SDS011;6452;41.572;23.732;2023-06-14T08:32:46;2.90;;;2.30;;
12776;SDS011;6452;41.572;23.732;2023-06-14T08:35:12;2.38;;;2.28;;
12776;SDS011;6452;41.572;23.732;2023-06-14T08:37:38;2.30;;;1.90;;
12776;SDS011;6452;41.572;23.732;2023-06-14T08:40:06;2.33;;;2.22;;
12776;SDS011;6452;41.572;23.732;2023-06-14T08:42:34;2.45;;;2.35;;
12776;SDS011;6452;41.572;23.732;2023-06-14T08:45:02;2.70;;;2.50;;
12776;SDS011;6452;41.572;23.732;2023-06-14T08:47:29;2.20;;;2.10;;
12776;SDS011;6452;41.572;23.732;2023-06-14T08:50:02;3.63;;;3.33;;
12776;SDS011;6452;41.572;23.732;2023-06-14T08:52:30;2.80;;;2.70;;
12776;SDS011;6452;41.572;23.732;2023-06-14T08:54:59;3.00;;;2.80;;
12776;SDS011;6452;41.572;23.732;2023-06-14T08:57:26;3.28;;;3.08;;
12776;SDS011;6452;41.572;23.732;2023-06-14T08:59:55;2.72;;;2.63;;
12776;SDS011;6452;41.572;23.732;2023-06-14T09:02:22;2.75;;;2.60;;
12776;SDS011;6452;41.572;23.732;2023-06-14T09:04:48;2.30;;;2.25;;
12776;SDS011;6452;41.572;23.732;2023-06-14T09:07:17;2.58;;;2.47;;
12776;SDS011;6452;41.572;23.732;2023-06-14T09:09:43;2.17;;;2.10;;
12776;SDS011;6452;41.572;23.732;2023-06-14T09:12:10;2.95;;;2.78;;
12776;SDS011;6452;41.572;23.732;2023-06-14T09:14:37;2.30;;;2.20;;
12776;SDS011;6452;41.572;23.732;2023-06-14T09:17:05;4.05;;;1.80;;
12776;SDS011;6452;41.572;23.732;2023-06-14T09:19:31;3.35;;;2.40;;
12776;SDS011;6452;41.572;23.732;2023-06-14T09:21:59;2.28;;;2.13;;
12776;SDS011;6452;41.572;23.732;2023-06-14T09:24:25;2.40;;;2.30;;
12776;SDS011;6452;41.572;23.732;2023-06-14T09:26:52;1.92;;;1.92;;
12776;SDS011;6452;41.572;23.732;2023-06-14T09:29:18;2.00;;;2.00;;
12776;SDS011;6452;41.572;23.732;2023-06-14T09:31:46;1.80;;;1.70;;
12776;SDS011;6452;41.572;23.732;2023-06-14T09:34:12;2.15;;;2.05;;
12776;SDS011;6452;41.572;23.732;2023-06-14T09:36:38;2.00;;;1.90;;
12776;SDS011;6452;41.572;23.732;2023-06-14T09:39:05;1.95;;;1.85;;
12776;SDS011;6452;41.572;23.732;2023-06-14T09:43:58;1.40;;;1.40;;
12776;SDS011;6452;41.572;23.732;2023-06-14T09:46:26;1.80;;;1.70;;
12776;SDS011;6452;41.572;23.732;2023-06-14T09:48:53;1.58;;;1.50;;
12776;SDS011;6452;41.572;23.732;2023-06-14T09:51:19;1.38;;;1.38;;
12776;SDS011;6452;41.572;23.732;2023-06-14T09:53:47;1.52;;;1.52;;
12776;SDS011;6452;41.572;23.732;2023-06-14T09:56:16;2.05;;;1.90;;
12776;SDS011;6452;41.572;23.732;2023-06-14T09:58:45;1.35;;;1.35;;
12776;SDS011;6452;41.572;23.732;2023-06-14T10:01:11;1.50;;;1.50;;
12776;SDS011;6452;41.572;23.732;2023-06-14T10:03:39;1.60;;;1.55;;
12776;SDS011;6452;41.572;23.732;2023-06-14T10:06:05;1.85;;;1.85;;
12776;SDS011;6452;41.572;23.732;2023-06-14T10:08:32;1.92;;;1.90;;
12776;SDS011;6452;41.572;23.732;2023-06-14T10:11:01;1.60;;;1.60;;
12776;SDS011;6452;41.572;23.732;2023-06-14T10:13:27;1.58;;;1.58;;
12776;SDS011;6452;41.572;23.732;2023-06-14T10:21:36;1.65;;;1.60;;
12776;SDS011;6452;41.572;23.732;2023-06-14T10:24:05;1.80;;;1.70;;
12776;SDS011;6452;41.572;23.732;2023-06-14T10:26:32;2.00;;;2.00;;
12776;SDS011;6452;41.572;23.732;2023-06-14T10:28:59;2.08;;;1.98;;
12776;SDS011;6452;41.572;23.732;2023-06-14T10:31:48;1.90;;;1.80;;
12776;SDS011;6452;41.572;23.732;2023-06-14T10:34:21;2.60;;;2.50;;
12776;SDS011;6452;41.572;23.732;2023-06-14T10:36:59;2.97;;;2.78;;
12776;SDS011;6452;41.572;23.732;2023-06-14T10:39:27;2.17;;;2.08;;
12776;SDS011;6452;41.572;23.732;2023-06-14T10:41:53;2.58;;;2.47;;
12776;SDS011;6452;41.572;23.732;2023-06-14T10:46:46;2.10;;;2.00;;
12776;SDS011;6452;41.572;23.732;2023-06-14T10:49:18;2.22;;;2.20;;
12776;SDS011;6452;41.572;23.732;2023-06-14T10:51:45;2.05;;;1.95;;
12776;SDS011;6452;41.572;23.732;2023-06-14T10:54:13;3.22;;;2.03;;
12776;SDS011;6452;41.572;23.732;2023-06-14T10:56:46;1.98;;;1.88;;
12776;SDS011;6452;41.572;23.732;2023-06-14T10:59:13;2.08;;;2.00;;
12776;SDS011;6452;41.572;23.732;2023-06-14T11:01:40;1.90;;;1.90;;
12776;SDS011;6452;41.572;23.732;2023-06-14T11:04:10;1.50;;;1.50;;
12776;SDS011;6452;41.572;23.732;2023-06-14T11:06:44;1.70;;;1.58;;
12776;SDS011;6452;41.572;23.732;2023-06-14T11:11:36;2.13;;;2.03;;
12776;SDS011;6452;41.572;23.732;2023-06-14T11:14:04;1.73;;;1.73;;
12776;SDS011;6452;41.572;23.732;2023-06-14T11:16:30;2.00;;;1.90;;
12776;SDS011;6452;41.572;23.732;2023-06-14T11:19:00;1.80;;;1.70;;
12776;SDS011;6452;41.572;23.732;2023-06-14T11:21:25;1.85;;;1.80;;
12776;SDS011;6452;41.572;23.732;2023-06-14T11:23:56;1.88;;;1.73;;
12776;SDS011;6452;41.572;23.732;2023-06-14T11:26:26;2.17;;;2.08;;
12776;SDS011;6452;41.572;23.732;2023-06-14T11:28:56;1.77;;;1.77;;
12776;SDS011;6452;41.572;23.732;2023-06-14T11:31:22;1.70;;;1.65;;
12776;SDS011;6452;41.572;23.732;2023-06-14T11:33:53;1.85;;;1.75;;
12776;SDS011;6452;41.572;23.732;2023-06-14T11:36:19;1.75;;;1.75;;
12776;SDS011;6452;41.572;23.732;2023-06-14T11:38:45;1.70;;;1.70;;
12776;SDS011;6452;41.572;23.732;2023-06-14T11:41:11;1.60;;;1.60;;
12776;SDS011;6452;41.572;23.732;2023-06-14T11:43:37;1.77;;;1.67;;
12776;SDS011;6452;41.572;23.732;2023-06-14T11:46:03;2.45;;;1.67;;
12776;SDS011;6452;41.572;23.732;2023-06-14T11:48:37;1.52;;;1.52;;
12776;SDS011;6452;41.572;23.732;2023-06-14T11:51:03;1.60;;;1.60;;
12776;SDS011;6452;41.572;23.732;2023-06-14T11:53:29;1.95;;;1.85;;
12776;SDS011;6452;41.572;23.732;2023-06-14T11:55:56;1.73;;;1.73;;
12776;SDS011;6452;41.572;23.732;2023-06-14T11:58:23;1.65;;;1.55;;
12776;SDS011;6452;41.572;23.732;2023-06-14T12:00:49;1.77;;;1.67;;
12776;SDS011;6452;41.572;23.732;2023-06-14T12:03:15;1.60;;;1.60;;
12776;SDS011;6452;41.572;23.732;2023-06-14T12:05:41;1.50;;;1.50;;
12776;SDS011;6452;41.572;23.732;2023-06-14T12:08:07;1.77;;;1.67;;
12776;SDS011;6452;41.572;23.732;2023-06-14T12:10:40;2.05;;;1.95;;
12776;SDS011;6452;41.572;23.732;2023-06-14T12:13:25;1.90;;;1.80;;
12776;SDS011;6452;41.572;23.732;2023-06-14T12:15:56;1.75;;;1.75;;
12776;SDS011;6452;41.572;23.732;2023-06-14T12:18:32;1.90;;;1.80;;
12776;SDS011;6452;41.572;23.732;2023-06-14T12:21:09;1.60;;;1.60;;
12776;SDS011;6452;41.572;23.732;2023-06-14T12:23:39;1.20;;;1.20;;
12776;SDS011;6452;41.572;23.732;2023-06-14T12:26:04;0.93;;;0.93;;
12776;SDS011;6452;41.572;23.732;2023-06-14T12:28:31;1.10;;;1.10;;
12776;SDS011;6452;41.572;23.732;2023-06-14T12:30:57;0.98;;;0.98;;
12776;SDS011;6452;41.572;23.732;2023-06-14T12:33:24;1.35;;;0.95;;
12776;SDS011;6452;41.572;23.732;2023-06-14T12:35:50;1.48;;;1.27;;
12776;SDS011;6452;41.572;23.732;2023-06-14T12:38:16;1.33;;;1.30;;
12776;SDS011;6452;41.572;23.732;2023-06-14T12:40:42;1.17;;;1.17;;
12776;SDS011;6452;41.572;23.732;2023-06-14T12:43:08;1.02;;;1.02;;
12776;SDS011;6452;41.572;23.732;2023-06-14T12:45:34;1.38;;;1.27;;
12776;SDS011;6452;41.572;23.732;2023-06-14T12:48:00;1.60;;;1.50;;
12776;SDS011;6452;41.572;23.732;2023-06-14T12:50:27;1.55;;;1.45;;
12776;SDS011;6452;41.572;23.732;2023-06-14T12:52:53;1.40;;;1.40;;
12776;SDS011;6452;41.572;23.732;2023-06-14T12:55:19;1.90;;;1.60;;
12776;SDS011;6452;41.572;23.732;2023-06-14T12:57:45;2.17;;;1.80;;
12776;SDS011;6452;41.572;23.732;2023-06-14T13:00:12;2.40;;;1.65;;
12776;SDS011;6452;41.572;23.732;2023-06-14T13:02:39;1.60;;;1.60;;
12776;SDS011;6452;41.572;23.732;2023-06-14T13:05:05;1.90;;;1.83;;
12776;SDS011;6452;41.572;23.732;2023-06-14T13:07:31;2.60;;;1.80;;
12776;SDS011;6452;41.572;23.732;2023-06-14T13:09:57;2.63;;;2.33;;
12776;SDS011;6452;41.572;23.732;2023-06-14T13:12:23;2.67;;;2.15;;
12776;SDS011;6452;41.572;23.732;2023-06-14T13:14:50;1.48;;;1.38;;
12776;SDS011;6452;41.572;23.732;2023-06-14T13:17:16;1.73;;;1.63;;
12776;SDS011;6452;41.572;23.732;2023-06-14T13:19:42;2.50;;;2.00;;
12776;SDS011;6452;41.572;23.732;2023-06-14T13:22:08;2.25;;;1.90;;
12776;SDS011;6452;41.572;23.732;2023-06-14T13:24:34;1.70;;;1.60;;
12776;SDS011;6452;41.572;23.732;2023-06-14T13:27:00;2.00;;;1.90;;
12776;SDS011;6452;41.572;23.732;2023-06-14T13:29:26;3.47;;;1.88;;
12776;SDS011;6452;41.572;23.732;2023-06-14T13:31:53;2.88;;;2.63;;
12776;SDS011;6452;41.572;23.732;2023-06-14T13:34:19;3.15;;;2.90;;
12776;SDS011;6452;41.572;23.732;2023-06-14T13:36:45;3.03;;;2.83;;
12776;SDS011;6452;41.572;23.732;2023-06-14T13:39:11;3.85;;;2.97;;
12776;SDS011;6452;41.572;23.732;2023-06-14T13:41:38;2.53;;;2.42;;
12776;SDS011;6452;41.572;23.732;2023-06-14T13:44:04;2.90;;;2.70;;
12776;SDS011;6452;41.572;23.732;2023-06-14T13:46:30;3.22;;;2.92;;
12776;SDS011;6452;41.572;23.732;2023-06-14T13:48:55;3.60;;;3.40;;
12776;SDS011;6452;41.572;23.732;2023-06-14T13:51:22;3.08;;;2.70;;
12776;SDS011;6452;41.572;23.732;2023-06-14T13:53:49;3.10;;;2.83;;
12776;SDS011;6452;41.572;23.732;2023-06-14T13:56:16;4.57;;;2.50;;
12776;SDS011;6452;41.572;23.732;2023-06-14T13:58:42;4.80;;;3.05;;
12776;SDS011;6452;41.572;23.732;2023-06-14T14:01:08;3.47;;;2.50;;
12776;SDS011;6452;41.572;23.732;2023-06-14T14:03:34;2.60;;;2.40;;
12776;SDS011;6452;41.572;23.732;2023-06-14T14:06:03;2.60;;;2.42;;
12776;SDS011;6452;41.572;23.732;2023-06-14T14:08:30;2.40;;;2.30;;
12776;SDS011;6452;41.572;23.732;2023-06-14T14:10:56;2.80;;;2.60;;
12776;SDS011;6452;41.572;23.732;2023-06-14T14:13:22;2.40;;;2.30;;
12776;SDS011;6452;41.572;23.732;2023-06-14T14:15:50;2.63;;;2.42;;
12776;SDS011;6452;41.572;23.732;2023-06-14T14:18:16;3.10;;;2.80;;
12776;SDS011;6452;41.572;23.732;2023-06-14T14:20:42;3.55;;;3.13;;
12776;SDS011;6452;41.572;23.732;2023-06-14T14:23:09;2.90;;;2.70;;
12776;SDS011;6452;41.572;23.732;2023-06-14T14:25:35;3.08;;;2.92;;
12776;SDS011;6452;41.572;23.732;2023-06-14T14:28:01;2.63;;;2.45;;
12776;SDS011;6452;41.572;23.732;2023-06-14T14:30:28;2.83;;;2.63;;
12776;SDS011;6452;41.572;23.732;2023-06-14T14:32:54;2.35;;;2.25;;
12776;SDS011;6452;41.572;23.732;2023-06-14T14:35:21;2.53;;;2.13;;
12776;SDS011;6452;41.572;23.732;2023-06-14T14:37:48;2.67;;;2.53;;
12776;SDS011;6452;41.572;23.732;2023-06-14T14:40:15;2.50;;;2.33;;
12776;SDS011;6452;41.572;23.732;2023-06-14T14:42:41;2.67;;;2.47;;
12776;SDS011;6452;41.572;23.732;2023-06-14T14:45:07;2.78;;;2.60;;
12776;SDS011;6452;41.572;23.732;2023-06-14T14:47:34;2.83;;;2.63;;
12776;SDS011;6452;41.572;23.732;2023-06-14T14:50:00;3.55;;;2.50;;
12776;SDS011;6452;41.572;23.732;2023-06-14T14:52:26;2.75;;;2.55;;
12776;SDS011;6452;41.572;23.732;2023-06-14T14:54:52;3.17;;;2.92;;
12776;SDS011;6452;41.572;23.732;2023-06-14T14:57:19;2.53;;;2.20;;
12776;SDS011;6452;41.572;23.732;2023-06-14T14:59:45;2.80;;;2.60;;
12776;SDS011;6452;41.572;23.732;2023-06-14T15:02:10;2.70;;;2.60;;
12776;SDS011;6452;41.572;23.732;2023-06-14T15:04:37;2.60;;;2.40;;